createdAt,value
2019-04-16T00:00:19.453Z,54.90
2019-04-16T00:01:19.476Z,54.79
2019-04-16T00:02:19.502Z,55.00
2019-04-16T00:03:20.338Z,55.00
2019-04-16T00:04:19.408Z,55.10
2019-04-16T00:05:19.398Z,55.10
2019-04-16T00:06:19.423Z,55.20
2019-04-16T00:07:19.384Z,55.00
2019-04-16T00:08:27.774Z,55.00
2019-04-16T00:09:20.353Z,55.10
2019-04-16T00:10:19.347Z,55.30
2019-04-16T00:11:19.341Z,54.90
2019-04-16T00:12:19.325Z,54.90
2019-04-16T00:13:19.353Z,54.90
2019-04-16T00:14:19.326Z,55.00
2019-04-16T00:15:19.296Z,55.10
2019-04-16T00:16:19.294Z,55.20
2019-04-16T00:17:19.293Z,55.10
2019-04-16T00:18:19.546Z,55.20
2019-04-16T00:19:19.242Z,55.20
2019-04-16T00:20:19.244Z,55.20
2019-04-16T00:21:19.232Z,55.20
2019-04-16T00:22:19.212Z,55.30
2019-04-16T00:23:19.246Z,55.41
2019-04-16T00:24:19.496Z,55.10
2019-04-16T00:25:19.192Z,55.20
2019-04-16T00:26:19.183Z,55.10
2019-04-16T00:27:19.162Z,55.41
2019-04-16T00:28:19.187Z,55.51
2019-04-16T00:29:19.181Z,55.51
2019-04-16T00:30:19.131Z,55.64
2019-04-16T00:31:19.125Z,55.85
2019-04-16T00:32:19.115Z,55.85
2019-04-16T00:33:19.122Z,55.85
2019-04-16T00:34:19.124Z,55.85
2019-04-16T00:35:19.073Z,55.85
2019-04-16T00:36:19.062Z,56.05
2019-04-16T00:37:21.277Z,56.16
2019-04-16T00:38:22.401Z,56.26
2019-04-16T00:39:19.149Z,56.26
2019-04-16T00:40:19.019Z,56.37
2019-04-16T00:41:19.011Z,56.46
2019-04-16T00:42:18.992Z,56.46
2019-04-16T00:43:18.991Z,56.57
2019-04-16T00:44:19.014Z,56.57
2019-04-16T00:45:19.001Z,56.46
2019-04-16T00:46:18.951Z,56.57
2019-04-16T00:47:18.941Z,56.67
2019-04-16T00:48:18.942Z,56.77
2019-04-16T00:49:18.932Z,56.77
2019-04-16T00:50:18.960Z,56.77
2019-04-16T00:51:18.922Z,57.29
2019-04-16T00:52:18.889Z,56.98
2019-04-16T00:53:18.874Z,56.46
2019-04-16T00:54:18.862Z,56.57
2019-04-16T00:55:18.890Z,56.46
2019-04-16T00:56:18.849Z,56.46
2019-04-16T00:57:18.843Z,56.60
2019-04-16T00:58:19.703Z,56.49
2019-04-16T00:59:21.352Z,56.70
2019-04-16T01:00:19.845Z,56.70
2019-04-16T01:01:18.800Z,56.81
2019-04-16T01:02:18.780Z,56.81
2019-04-16T01:03:18.772Z,56.90
2019-04-16T01:04:18.791Z,57.11
2019-04-16T01:05:18.748Z,56.81
2019-04-16T01:06:18.809Z,56.90
2019-04-16T01:07:18.749Z,56.90
2019-04-16T01:08:18.720Z,57.14
2019-04-16T01:09:18.700Z,57.24
2019-04-16T01:10:18.709Z,57.14
2019-04-16T01:11:18.711Z,57.21
2019-04-16T01:12:18.681Z,57.14
2019-04-16T01:13:18.659Z,57.14
2019-04-16T01:14:18.654Z,57.34
2019-04-16T01:15:18.642Z,57.34
2019-04-16T01:16:18.659Z,57.24
2019-04-16T01:17:18.652Z,57.11
2019-04-16T01:18:18.619Z,57.11
2019-04-16T01:19:18.611Z,57.24
2019-04-16T01:20:18.578Z,57.45
2019-04-16T01:21:18.623Z,57.55
2019-04-16T01:22:18.582Z,57.65
2019-04-16T01:23:18.582Z,57.76
2019-04-16T01:24:20.323Z,57.86
2019-04-16T01:25:20.328Z,57.76
2019-04-16T01:26:18.527Z,57.76
2019-04-16T01:27:18.508Z,57.65
2019-04-16T01:28:18.547Z,57.65
2019-04-16T01:29:18.487Z,57.63
2019-04-16T01:30:18.498Z,57.53
2019-04-16T01:31:18.462Z,57.63
2019-04-16T01:32:18.454Z,57.63
2019-04-16T01:33:18.478Z,57.73
2019-04-16T01:34:18.773Z,57.76
2019-04-16T01:35:19.013Z,57.76
2019-04-16T01:36:20.333Z,57.86
2019-04-16T01:37:18.435Z,57.84
2019-04-16T01:38:18.391Z,57.84
2019-04-16T01:39:18.435Z,57.84
2019-04-16T01:40:19.213Z,57.73
2019-04-16T01:41:21.631Z,57.63
2019-04-16T01:42:18.347Z,57.73
2019-04-16T01:43:18.357Z,57.84
2019-04-16T01:44:18.324Z,57.84
2019-04-16T01:45:18.316Z,58.04
2019-04-16T01:46:18.348Z,58.04
2019-04-16T01:47:18.305Z,57.84
2019-04-16T01:48:18.278Z,57.63
2019-04-16T01:49:18.268Z,57.84
2019-04-16T01:50:18.294Z,57.84
2019-04-16T01:51:18.246Z,57.94
2019-04-16T01:52:19.068Z,58.04
2019-04-16T01:53:18.322Z,58.28
2019-04-16T01:54:22.556Z,58.25
2019-04-16T01:55:19.246Z,58.15
2019-04-16T01:56:18.198Z,58.25
2019-04-16T01:57:18.199Z,58.25
2019-04-16T01:58:18.173Z,58.15
2019-04-16T01:59:18.176Z,58.15
2019-04-16T02:00:18.193Z,58.28
2019-04-16T02:01:18.168Z,58.38
2019-04-16T02:02:18.127Z,58.38
2019-04-16T02:03:18.536Z,58.38
2019-04-16T02:04:19.802Z,58.66
2019-04-16T02:05:20.375Z,58.56
2019-04-16T02:06:19.083Z,58.15
2019-04-16T02:07:18.075Z,58.15
2019-04-16T02:08:18.066Z,58.25
2019-04-16T02:09:22.722Z,58.15
2019-04-16T02:10:19.071Z,58.25
2019-04-16T02:11:18.088Z,58.15
2019-04-16T02:12:18.024Z,58.28
2019-04-16T02:13:18.006Z,58.28
2019-04-16T02:14:22.037Z,58.48
2019-04-16T02:15:21.663Z,58.69
2019-04-16T02:16:18.014Z,58.89
2019-04-16T02:17:17.977Z,58.79
2019-04-16T02:18:17.965Z,58.79
2019-04-16T02:19:17.953Z,58.69
2019-04-16T02:20:17.954Z,58.25
2019-04-16T02:21:17.956Z,58.17
2019-04-16T02:22:17.935Z,58.38
2019-04-16T02:23:17.925Z,58.48
2019-04-16T02:24:18.737Z,58.48
2019-04-16T02:25:20.122Z,58.59
2019-04-16T02:26:20.504Z,58.48
2019-04-16T02:27:18.897Z,58.48
2019-04-16T02:28:17.850Z,58.61
2019-04-16T02:29:17.881Z,58.82
2019-04-16T02:30:17.852Z,58.92
2019-04-16T02:31:17.849Z,59.03
2019-04-16T02:32:17.831Z,59.23
2019-04-16T02:33:17.844Z,59.23
2019-04-16T02:34:17.852Z,59.34
2019-04-16T02:35:17.773Z,59.44
2019-04-16T02:36:17.785Z,59.44
2019-04-16T02:37:17.774Z,59.44
2019-04-16T02:38:17.734Z,59.55
2019-04-16T02:39:17.727Z,59.55
2019-04-16T02:40:18.867Z,59.55
2019-04-16T02:41:17.738Z,59.64
2019-04-16T02:42:17.694Z,59.75
2019-04-16T02:43:17.708Z,59.75
2019-04-16T02:44:17.672Z,59.64
2019-04-16T02:45:23.072Z,59.75
2019-04-16T02:46:18.722Z,59.75
2019-04-16T02:47:17.649Z,60.16
2019-04-16T02:48:17.668Z,60.37
2019-04-16T02:49:23.004Z,60.16
2019-04-16T02:50:18.602Z,60.16
2019-04-16T02:51:17.684Z,59.93
2019-04-16T02:52:17.632Z,59.83
2019-04-16T02:53:24.205Z,59.83
2019-04-16T02:54:18.563Z,59.62
2019-04-16T02:55:17.552Z,59.62
2019-04-16T02:56:19.154Z,59.85
2019-04-16T02:57:17.565Z,60.16
2019-04-16T02:58:17.542Z,60.27
2019-04-16T02:59:17.565Z,60.47
2019-04-16T03:00:18.494Z,60.37
2019-04-16T03:01:20.442Z,60.27
2019-04-16T03:02:17.507Z,60.27
2019-04-16T03:03:17.474Z,60.27
2019-04-16T03:04:17.472Z,60.27
2019-04-16T03:05:17.461Z,60.27
2019-04-16T03:06:17.506Z,60.16
2019-04-16T03:07:17.460Z,60.37
2019-04-16T03:08:17.411Z,60.47
2019-04-16T03:09:17.401Z,60.58
2019-04-16T03:10:17.392Z,60.78
2019-04-16T03:11:18.126Z,60.68
2019-04-16T03:12:20.034Z,60.78
2019-04-16T03:13:17.402Z,60.89
2019-04-16T03:14:17.342Z,60.99
2019-04-16T03:15:17.381Z,60.89
2019-04-16T03:16:17.329Z,61.10
2019-04-16T03:17:17.341Z,61.10
2019-04-16T03:18:17.307Z,60.99
2019-04-16T03:19:20.075Z,60.78
2019-04-16T03:20:17.287Z,60.89
2019-04-16T03:21:17.272Z,61.12
2019-04-16T03:22:17.308Z,61.22
2019-04-16T03:23:17.260Z,61.30
2019-04-16T03:24:17.239Z,61.10
2019-04-16T03:25:17.246Z,61.12
2019-04-16T03:26:18.201Z,61.10
2019-04-16T03:27:21.888Z,61.02
2019-04-16T03:28:18.189Z,61.33
2019-04-16T03:29:17.209Z,61.33
2019-04-16T03:30:17.183Z,61.22
2019-04-16T03:31:22.203Z,61.22
2019-04-16T03:32:18.225Z,61.43
2019-04-16T03:33:17.163Z,61.64
2019-04-16T03:34:19.093Z,61.77
2019-04-16T03:35:17.138Z,61.87
2019-04-16T03:36:17.108Z,61.98
2019-04-16T03:37:17.102Z,62.29
2019-04-16T03:38:17.160Z,62.49
2019-04-16T03:39:17.100Z,62.60
2019-04-16T03:40:18.895Z,62.70
2019-04-16T03:41:18.073Z,62.60
2019-04-16T03:42:17.039Z,62.70
2019-04-16T03:43:17.109Z,62.70
2019-04-16T03:44:17.036Z,62.70
2019-04-16T03:45:17.020Z,62.60
2019-04-16T03:46:17.018Z,62.60
2019-04-16T03:47:19.139Z,62.70
2019-04-16T03:48:17.030Z,62.70
2019-04-16T03:49:16.970Z,62.81
2019-04-16T03:50:17.557Z,62.70
2019-04-16T03:51:17.215Z,62.81
2019-04-16T03:52:16.989Z,62.91
2019-04-16T03:53:18.222Z,62.91
2019-04-16T03:54:19.293Z,62.91
2019-04-16T03:55:17.978Z,63.01
2019-04-16T03:56:17.727Z,63.12
2019-04-16T03:57:16.888Z,63.12
2019-04-16T03:58:16.870Z,63.12
2019-04-16T03:59:16.904Z,63.01
2019-04-16T04:00:16.901Z,62.91
2019-04-16T04:01:16.886Z,63.01
2019-04-16T04:02:21.955Z,62.91
2019-04-16T04:03:17.826Z,62.98
2019-04-16T04:04:16.850Z,62.88
2019-04-16T04:05:16.917Z,62.91
2019-04-16T04:06:16.828Z,63.22
2019-04-16T04:07:16.778Z,63.32
2019-04-16T04:08:17.966Z,63.43
2019-04-16T04:09:18.889Z,63.32
2019-04-16T04:10:29.565Z,63.53
2019-04-16T04:11:17.736Z,63.64
2019-04-16T04:12:16.727Z,63.84
2019-04-16T04:13:18.596Z,63.74
2019-04-16T04:14:22.146Z,63.84
2019-04-16T04:15:18.174Z,63.74
2019-04-16T04:16:16.765Z,63.84
2019-04-16T04:17:16.664Z,63.84
2019-04-16T04:18:16.664Z,63.95
2019-04-16T04:19:16.665Z,63.95
2019-04-16T04:20:18.103Z,64.04
2019-04-16T04:21:20.936Z,64.04
2019-04-16T04:22:17.663Z,64.04
2019-04-16T04:23:16.639Z,64.04
2019-04-16T04:24:16.843Z,64.25
2019-04-16T04:25:16.853Z,64.70
2019-04-16T04:26:16.792Z,64.80
2019-04-16T04:27:18.998Z,64.77
2019-04-16T04:28:19.950Z,64.77
2019-04-16T04:29:16.535Z,64.90
2019-04-16T04:30:16.526Z,65.11
2019-04-16T04:31:16.543Z,64.90
2019-04-16T04:32:16.514Z,64.70
2019-04-16T04:33:16.487Z,64.56
2019-04-16T04:34:17.213Z,64.56
2019-04-16T04:35:20.612Z,64.46
2019-04-16T04:36:19.592Z,64.56
2019-04-16T04:37:16.625Z,64.67
2019-04-16T04:38:16.484Z,64.46
2019-04-16T04:39:16.435Z,64.46
2019-04-16T04:40:17.553Z,64.46
2019-04-16T04:41:16.435Z,64.15
2019-04-16T04:42:18.962Z,63.92
2019-04-16T04:43:16.386Z,63.81
2019-04-16T04:44:16.373Z,63.09
2019-04-16T04:45:16.361Z,62.54
2019-04-16T04:46:16.415Z,62.02
2019-04-16T04:47:19.259Z,61.85
2019-04-16T04:48:16.333Z,61.95
2019-04-16T04:49:16.343Z,62.16
2019-04-16T04:50:16.555Z,62.37
2019-04-16T04:51:16.377Z,62.46
2019-04-16T04:52:16.450Z,62.37
2019-04-16T04:53:19.440Z,62.26
2019-04-16T04:54:16.316Z,61.95
2019-04-16T04:55:16.242Z,61.95
2019-04-16T04:56:19.180Z,61.71
2019-04-16T04:57:16.241Z,61.40
2019-04-16T04:58:16.234Z,60.99
2019-04-16T04:59:16.202Z,61.20
2019-04-16T05:00:16.222Z,61.30
2019-04-16T05:01:16.242Z,61.30
2019-04-16T05:02:16.172Z,61.30
2019-04-16T05:03:16.854Z,61.20
2019-04-16T05:04:18.967Z,61.10
2019-04-16T05:05:16.213Z,60.78
2019-04-16T05:06:16.197Z,61.10
2019-04-16T05:07:16.312Z,61.07
2019-04-16T05:08:16.131Z,61.27
2019-04-16T05:09:16.098Z,60.83
2019-04-16T05:10:16.103Z,60.42
2019-04-16T05:11:16.961Z,60.00
2019-04-16T05:12:17.864Z,60.31
2019-04-16T05:13:17.051Z,60.42
2019-04-16T05:14:16.052Z,61.45
2019-04-16T05:15:16.043Z,61.45
2019-04-16T05:16:16.062Z,59.88
2019-04-16T05:17:16.016Z,60.18
2019-04-16T05:18:16.041Z,59.44
2019-04-16T05:19:16.108Z,58.81
2019-04-16T05:20:16.864Z,58.58
2019-04-16T05:21:18.700Z,58.48
2019-04-16T05:22:20.635Z,58.27
2019-04-16T05:23:16.995Z,57.73
2019-04-16T05:24:16.813Z,57.83
2019-04-16T05:25:15.921Z,57.73
2019-04-16T05:26:15.930Z,57.73
2019-04-16T05:27:15.907Z,57.83
2019-04-16T05:28:15.916Z,57.62
2019-04-16T05:29:17.050Z,57.42
2019-04-16T05:30:20.229Z,57.09
2019-04-16T05:31:15.886Z,57.42
2019-04-16T05:32:15.851Z,57.62
2019-04-16T05:33:15.916Z,57.62
2019-04-16T05:34:18.156Z,57.09
2019-04-16T05:35:15.854Z,56.65
2019-04-16T05:36:15.832Z,56.23
2019-04-16T05:37:16.381Z,56.03
2019-04-16T05:38:15.837Z,55.80
2019-04-16T05:39:16.027Z,55.05
2019-04-16T05:40:15.758Z,54.61
2019-04-16T05:41:20.746Z,53.56
2019-04-16T05:42:16.754Z,52.92
2019-04-16T05:43:15.779Z,52.07
2019-04-16T05:44:15.741Z,52.28
2019-04-16T05:45:15.738Z,52.94
2019-04-16T05:46:15.704Z,53.56
2019-04-16T05:47:17.874Z,53.77
2019-04-16T05:48:18.476Z,53.74
2019-04-16T05:49:16.660Z,52.89
2019-04-16T05:50:15.730Z,51.72
2019-04-16T05:51:15.642Z,51.61
2019-04-16T05:52:15.628Z,52.38
2019-04-16T05:53:15.792Z,53.64
2019-04-16T05:54:15.772Z,54.36
2019-04-16T05:55:18.049Z,53.72
2019-04-16T05:56:15.801Z,52.41
2019-04-16T05:57:15.590Z,51.36
2019-04-16T05:58:15.626Z,50.42
2019-04-16T05:59:15.559Z,50.21
2019-04-16T06:00:15.626Z,50.18
2019-04-16T06:01:15.545Z,50.18
2019-04-16T06:02:18.757Z,49.88
2019-04-16T06:03:20.458Z,50.09
2019-04-16T06:04:16.651Z,50.29
2019-04-16T06:05:15.569Z,50.18
2019-04-16T06:06:15.508Z,50.59
2019-04-16T06:07:15.466Z,50.93
2019-04-16T06:08:15.450Z,51.13
2019-04-16T06:09:15.620Z,51.34
2019-04-16T06:10:17.787Z,51.75
2019-04-16T06:11:27.496Z,51.54
2019-04-16T06:12:16.447Z,51.77
2019-04-16T06:13:15.433Z,51.54
2019-04-16T06:14:17.926Z,51.10
2019-04-16T06:15:15.388Z,50.59
2019-04-16T06:16:15.417Z,51.36
2019-04-16T06:17:16.379Z,51.95
2019-04-16T06:18:18.073Z,50.98
2019-04-16T06:19:15.339Z,49.81
2019-04-16T06:20:19.023Z,48.21
2019-04-16T06:21:16.347Z,46.41
2019-04-16T06:22:15.342Z,45.06
2019-04-16T06:23:15.318Z,44.43
2019-04-16T06:24:15.320Z,43.69
2019-04-16T06:25:15.299Z,44.10
2019-04-16T06:26:16.842Z,44.51
2019-04-16T06:27:15.354Z,44.98
2019-04-16T06:28:15.451Z,47.72
2019-04-16T06:29:15.513Z,49.19
2019-04-16T06:30:15.230Z,49.81
2019-04-16T06:31:15.205Z,50.22
2019-04-16T06:32:15.238Z,49.68
2019-04-16T06:33:15.197Z,49.25
2019-04-16T06:34:15.169Z,49.35
2019-04-16T06:35:15.168Z,48.61
2019-04-16T06:36:15.170Z,48.59
2019-04-16T06:37:20.296Z,47.73
2019-04-16T06:38:16.138Z,46.79
2019-04-16T06:39:16.078Z,46.03
2019-04-16T06:40:15.167Z,45.50
2019-04-16T06:41:15.211Z,44.89
2019-04-16T06:42:15.173Z,44.77
2019-04-16T06:43:15.080Z,43.84
2019-04-16T06:44:15.079Z,44.04
2019-04-16T06:45:15.291Z,44.57
2019-04-16T06:46:15.050Z,45.06
2019-04-16T06:47:15.057Z,44.85
2019-04-16T06:48:15.026Z,43.81
2019-04-16T06:49:17.820Z,43.30
2019-04-16T06:50:14.998Z,43.10
2019-04-16T06:51:15.009Z,43.30
2019-04-16T06:52:16.797Z,43.20
2019-04-16T06:53:14.997Z,42.68
2019-04-16T06:54:15.773Z,42.55
2019-04-16T06:55:15.629Z,42.55
2019-04-16T06:56:15.258Z,42.02
2019-04-16T06:57:15.015Z,42.02
2019-04-16T06:58:16.596Z,41.31
2019-04-16T06:59:17.144Z,41.30
2019-04-16T07:00:14.891Z,40.70
2019-04-16T07:01:14.886Z,41.24
2019-04-16T07:02:15.098Z,41.94
2019-04-16T07:03:14.895Z,41.72
2019-04-16T07:04:15.770Z,41.09
2019-04-16T07:05:14.844Z,40.77
2019-04-16T07:06:14.818Z,40.34
2019-04-16T07:07:15.009Z,39.90
2019-04-16T07:08:17.734Z,39.28
2019-04-16T07:09:14.818Z,38.85
2019-04-16T07:10:14.771Z,38.35
2019-04-16T07:11:14.765Z,38.02
2019-04-16T07:12:15.268Z,37.81
2019-04-16T07:13:14.804Z,37.50
2019-04-16T07:14:15.591Z,37.60
2019-04-16T07:15:14.727Z,37.59
2019-04-16T07:16:14.710Z,37.84
2019-04-16T07:17:17.356Z,38.57
2019-04-16T07:18:14.759Z,38.67
2019-04-16T07:19:16.767Z,38.46
2019-04-16T07:20:14.693Z,38.67
2019-04-16T07:21:17.596Z,39.29
2019-04-16T07:22:17.457Z,39.50
2019-04-16T07:23:15.654Z,40.43
2019-04-16T07:24:14.666Z,40.22
2019-04-16T07:25:15.233Z,40.53
2019-04-16T07:26:15.234Z,41.02
2019-04-16T07:27:19.581Z,39.68
2019-04-16T07:28:15.622Z,39.76
2019-04-16T07:29:14.605Z,39.14
2019-04-16T07:30:17.394Z,38.73
2019-04-16T07:31:25.923Z,38.93
2019-04-16T07:32:15.637Z,38.93
2019-04-16T07:33:14.574Z,38.75
2019-04-16T07:34:14.513Z,39.28
2019-04-16T07:35:14.525Z,39.88
2019-04-16T07:36:14.492Z,39.17
2019-04-16T07:37:14.493Z,39.37
2019-04-16T07:38:14.523Z,39.48
2019-04-16T07:39:28.305Z,39.76
2019-04-16T07:40:15.457Z,39.66
2019-04-16T07:41:17.029Z,39.44
2019-04-16T07:42:21.187Z,39.12
2019-04-16T07:43:16.024Z,38.92
2019-04-16T07:44:14.402Z,38.59
2019-04-16T07:45:14.404Z,38.19
2019-04-16T07:46:14.413Z,37.97
2019-04-16T07:47:14.380Z,37.97
2019-04-16T07:48:14.367Z,38.06
2019-04-16T07:49:14.354Z,37.65
2019-04-16T07:50:14.335Z,38.15
2019-04-16T07:51:14.366Z,38.34
2019-04-16T07:52:14.316Z,38.12
2019-04-16T07:53:14.503Z,37.21
2019-04-16T07:54:14.338Z,36.39
2019-04-16T07:55:14.294Z,36.39
2019-04-16T07:56:14.273Z,36.59
2019-04-16T07:57:14.311Z,36.69
2019-04-16T07:58:14.294Z,36.10
2019-04-16T07:59:14.245Z,36.10
2019-04-16T08:00:14.296Z,36.39
2019-04-16T08:01:16.400Z,36.30
2019-04-16T08:02:14.243Z,36.30
2019-04-16T08:03:14.225Z,36.51
2019-04-16T08:04:14.194Z,36.71
2019-04-16T08:05:14.174Z,36.10
2019-04-16T08:06:14.564Z,36.82
2019-04-16T08:07:14.159Z,36.93
2019-04-16T08:08:14.198Z,37.33
2019-04-16T08:09:14.136Z,37.04
2019-04-16T08:10:16.664Z,37.24
2019-04-16T08:11:14.139Z,37.35
2019-04-16T08:12:29.355Z,37.23
2019-04-16T08:13:15.132Z,37.31
2019-04-16T08:14:14.717Z,36.69
2019-04-16T08:15:15.363Z,36.08
2019-04-16T08:16:14.063Z,36.89
2019-04-16T08:17:14.046Z,36.67
2019-04-16T08:18:14.075Z,36.05
2019-04-16T08:19:15.178Z,34.92
2019-04-16T08:20:14.020Z,35.53
2019-04-16T08:21:14.000Z,35.43
2019-04-16T08:22:15.817Z,34.91
2019-04-16T08:23:16.649Z,35.19
2019-04-16T08:24:14.982Z,33.97
2019-04-16T08:25:13.969Z,34.36
2019-04-16T08:26:14.068Z,34.14
2019-04-16T08:27:17.804Z,33.83
2019-04-16T08:28:14.983Z,33.62
2019-04-16T08:29:13.928Z,33.00
2019-04-16T08:30:13.910Z,32.30
2019-04-16T08:31:13.901Z,32.18
2019-04-16T08:32:16.005Z,31.87
2019-04-16T08:33:13.903Z,31.56
2019-04-16T08:34:13.919Z,30.95
2019-04-16T08:35:13.861Z,30.94
2019-04-16T08:36:13.847Z,30.22
2019-04-16T08:37:13.831Z,30.41
2019-04-16T08:38:13.841Z,29.39
2019-04-16T08:39:13.853Z,28.98
2019-04-16T08:40:13.794Z,28.77
2019-04-16T08:41:19.795Z,28.97
2019-04-16T08:42:14.823Z,28.48
2019-04-16T08:43:13.763Z,28.38
2019-04-16T08:44:13.793Z,28.67
2019-04-16T08:45:13.756Z,28.66
2019-04-16T08:46:13.736Z,28.04
2019-04-16T08:47:13.723Z,28.53
2019-04-16T08:48:18.639Z,28.11
2019-04-16T08:49:15.352Z,27.20
2019-04-16T08:50:13.736Z,27.30
2019-04-16T08:51:13.704Z,27.00
2019-04-16T08:52:13.826Z,27.11
2019-04-16T08:53:14.365Z,27.40
2019-04-16T08:54:17.958Z,27.40
2019-04-16T08:55:14.634Z,27.40
2019-04-16T08:56:13.703Z,26.59
2019-04-16T08:57:13.621Z,26.81
2019-04-16T08:58:13.605Z,27.73
2019-04-16T08:59:13.598Z,28.25
2019-04-16T09:00:15.192Z,28.05
2019-04-16T09:01:15.437Z,28.04
2019-04-16T09:02:13.556Z,27.75
2019-04-16T09:03:15.396Z,27.74
2019-04-16T09:04:13.540Z,27.14
2019-04-16T09:05:13.677Z,27.55
2019-04-16T09:06:14.302Z,27.45
2019-04-16T09:07:19.443Z,27.45
2019-04-16T09:08:14.498Z,27.57
2019-04-16T09:09:18.256Z,28.48
2019-04-16T09:10:18.470Z,28.89
2019-04-16T09:11:23.088Z,28.51
2019-04-16T09:12:14.545Z,28.69
2019-04-16T09:13:15.231Z,29.00
2019-04-16T09:14:13.615Z,29.49
2019-04-16T09:15:13.422Z,28.28
2019-04-16T09:16:13.459Z,28.38
2019-04-16T09:17:13.397Z,27.97
2019-04-16T09:18:13.419Z,27.75
2019-04-16T09:19:13.385Z,27.56
2019-04-16T09:20:13.423Z,28.07
2019-04-16T09:21:13.354Z,28.17
2019-04-16T09:22:16.804Z,27.77
2019-04-16T09:23:13.372Z,28.98
2019-04-16T09:24:13.324Z,29.10
2019-04-16T09:25:14.071Z,29.69
2019-04-16T09:26:15.536Z,29.49
2019-04-16T09:27:14.304Z,29.69
2019-04-16T09:28:25.135Z,30.35
2019-04-16T09:29:14.263Z,30.27
2019-04-16T09:30:16.997Z,30.87
2019-04-16T09:31:13.254Z,31.05
2019-04-16T09:32:13.248Z,30.28
2019-04-16T09:33:13.270Z,31.09
2019-04-16T09:34:13.228Z,31.30
2019-04-16T09:35:18.362Z,31.10
2019-04-16T09:36:14.193Z,33.36
2019-04-16T09:37:13.192Z,32.78
2019-04-16T09:38:13.462Z,32.58
2019-04-16T09:39:13.167Z,33.07
2019-04-16T09:40:17.618Z,32.05
2019-04-16T09:41:14.153Z,31.83
2019-04-16T09:42:13.996Z,31.93
2019-04-16T09:43:17.571Z,31.83
2019-04-16T09:44:14.105Z,31.33
2019-04-16T09:45:13.116Z,31.95
2019-04-16T09:46:21.087Z,31.96
2019-04-16T09:47:14.134Z,32.46
2019-04-16T09:48:13.271Z,31.74
2019-04-16T09:49:13.053Z,31.54
2019-04-16T09:50:13.140Z,31.24
2019-04-16T09:51:18.829Z,31.24
2019-04-16T09:52:14.057Z,30.94
2019-04-16T09:53:13.057Z,32.05
2019-04-16T09:54:13.989Z,32.46
2019-04-16T09:55:15.186Z,31.76
2019-04-16T09:56:13.991Z,31.05
2019-04-16T09:57:12.986Z,30.54
2019-04-16T09:58:12.995Z,30.14
2019-04-16T09:59:15.806Z,31.33
2019-04-16T10:00:12.991Z,31.21
2019-04-16T10:01:12.942Z,29.11
2019-04-16T10:02:13.058Z,29.50
2019-04-16T10:03:12.928Z,29.60
2019-04-16T10:04:12.917Z,30.19
2019-04-16T10:05:12.899Z,30.40
2019-04-16T10:06:12.868Z,30.10
2019-04-16T10:07:12.879Z,29.49
2019-04-16T10:08:13.647Z,29.79
2019-04-16T10:09:12.886Z,29.50
2019-04-16T10:10:12.829Z,28.60
2019-04-16T10:11:12.836Z,28.63
2019-04-16T10:12:12.854Z,29.05
2019-04-16T10:13:12.804Z,29.05
2019-04-16T10:14:12.881Z,29.25
2019-04-16T10:15:12.777Z,28.93
2019-04-16T10:16:14.336Z,29.22
2019-04-16T10:17:12.992Z,29.50
2019-04-16T10:18:12.754Z,29.00
2019-04-16T10:19:12.775Z,29.29
2019-04-16T10:20:12.846Z,29.88
2019-04-16T10:21:12.918Z,27.78
2019-04-16T10:22:12.720Z,28.38
2019-04-16T10:23:12.729Z,28.29
2019-04-16T10:24:13.542Z,29.69
2019-04-16T10:25:12.859Z,29.58
2019-04-16T10:26:12.786Z,28.88
2019-04-16T10:27:12.817Z,28.67
2019-04-16T10:28:12.689Z,28.88
2019-04-16T10:29:12.622Z,28.67
2019-04-16T10:30:12.685Z,28.58
2019-04-16T10:31:12.848Z,27.87
2019-04-16T10:32:12.863Z,28.98
2019-04-16T10:33:12.684Z,29.12
2019-04-16T10:34:13.048Z,30.84
2019-04-16T10:35:12.887Z,30.46
2019-04-16T10:36:12.848Z,31.19
2019-04-16T10:37:12.760Z,30.79
2019-04-16T10:38:13.944Z,29.86
2019-04-16T10:39:12.763Z,29.83
2019-04-16T10:40:12.963Z,30.32
2019-04-16T10:41:12.849Z,29.31
2019-04-16T10:42:12.802Z,29.09
2019-04-16T10:43:12.869Z,28.29
2019-04-16T10:44:12.488Z,28.50
2019-04-16T10:45:12.456Z,28.41
2019-04-16T10:46:12.466Z,28.91
2019-04-16T10:47:12.621Z,29.91
2019-04-16T10:48:12.523Z,29.29
2019-04-16T10:49:12.414Z,28.59
2019-04-16T10:50:12.440Z,28.59
2019-04-16T10:51:15.212Z,28.60
2019-04-16T10:52:12.403Z,29.00
2019-04-16T10:53:12.408Z,28.72
2019-04-16T10:54:12.366Z,28.83
2019-04-16T10:55:12.942Z,29.03
2019-04-16T10:56:12.338Z,29.52
2019-04-16T10:57:12.321Z,28.91
2019-04-16T10:58:12.380Z,28.19
2019-04-16T10:59:12.319Z,28.69
2019-04-16T11:00:12.293Z,28.78
2019-04-16T11:01:12.283Z,28.67
2019-04-16T11:02:12.290Z,29.27
2019-04-16T11:03:12.304Z,29.77
2019-04-16T11:04:12.310Z,29.85
2019-04-16T11:05:15.099Z,28.74
2019-04-16T11:06:13.221Z,28.14
2019-04-16T11:07:12.275Z,28.64
2019-04-16T11:08:12.259Z,27.15
2019-04-16T11:09:12.201Z,27.26
2019-04-16T11:10:12.197Z,28.36
2019-04-16T11:11:12.178Z,28.48
2019-04-16T11:12:12.194Z,28.08
2019-04-16T11:13:12.202Z,27.47
2019-04-16T11:14:12.139Z,28.19
2019-04-16T11:15:13.010Z,27.99
2019-04-16T11:16:12.122Z,29.71
2019-04-16T11:17:12.157Z,29.31
2019-04-16T11:18:12.221Z,30.31
2019-04-16T11:19:12.111Z,30.19
2019-04-16T11:20:12.112Z,29.09
2019-04-16T11:21:12.097Z,29.50
2019-04-16T11:22:12.074Z,28.22
2019-04-16T11:23:12.075Z,29.03
2019-04-16T11:24:12.107Z,29.14
2019-04-16T11:25:12.041Z,29.57
2019-04-16T11:26:12.001Z,30.08
2019-04-16T11:27:12.022Z,29.57
2019-04-16T11:28:14.166Z,29.36
2019-04-16T11:29:12.171Z,30.16
2019-04-16T11:30:12.030Z,30.36
2019-04-16T11:31:12.000Z,31.48
2019-04-16T11:32:11.962Z,30.35
2019-04-16T11:33:11.962Z,30.55
2019-04-16T11:34:12.082Z,29.83
2019-04-16T11:35:12.945Z,30.34
2019-04-16T11:36:19.487Z,30.14
2019-04-16T11:37:12.969Z,29.62
2019-04-16T11:38:11.931Z,28.33
2019-04-16T11:39:11.912Z,29.24
2019-04-16T11:40:11.855Z,29.85
2019-04-16T11:41:11.881Z,29.65
2019-04-16T11:42:12.749Z,29.45
2019-04-16T11:43:11.827Z,29.14
2019-04-16T11:44:15.497Z,30.26
2019-04-16T11:45:12.823Z,31.26
2019-04-16T11:46:11.904Z,31.56
2019-04-16T11:47:11.794Z,31.24
2019-04-16T11:48:11.807Z,31.74
2019-04-16T11:49:12.106Z,31.46
2019-04-16T11:50:11.781Z,31.07
2019-04-16T11:51:11.778Z,30.47
2019-04-16T11:52:11.759Z,31.05
2019-04-16T11:53:11.781Z,30.14
2019-04-16T11:54:12.401Z,30.24
2019-04-16T11:55:11.952Z,29.63
2019-04-16T11:56:11.754Z,30.64
2019-04-16T11:57:13.330Z,29.53
2019-04-16T11:58:11.676Z,29.74
2019-04-16T11:59:11.700Z,29.74
2019-04-16T12:00:11.674Z,30.24
2019-04-16T12:01:11.661Z,29.24
2019-04-16T12:02:11.620Z,29.44
2019-04-16T12:03:11.651Z,30.44
2019-04-16T12:04:15.236Z,31.04
2019-04-16T12:05:11.597Z,30.64
2019-04-16T12:06:26.730Z,30.34
2019-04-16T12:07:12.614Z,29.42
2019-04-16T12:08:11.626Z,28.02
2019-04-16T12:09:11.558Z,28.33
2019-04-16T12:10:11.544Z,29.97
2019-04-16T12:11:11.867Z,29.78
2019-04-16T12:12:11.575Z,30.48
2019-04-16T12:13:11.527Z,31.39
2019-04-16T12:14:11.490Z,30.88
2019-04-16T12:15:11.705Z,31.29
2019-04-16T12:16:11.460Z,31.69
2019-04-16T12:17:11.519Z,31.79
2019-04-16T12:18:11.446Z,31.98
2019-04-16T12:19:11.448Z,30.67
2019-04-16T12:20:11.465Z,30.57
2019-04-16T12:21:11.522Z,30.96
2019-04-16T12:22:11.481Z,30.65
2019-04-16T12:23:11.410Z,30.15
2019-04-16T12:24:11.425Z,31.46
2019-04-16T12:25:11.517Z,30.67
2019-04-16T12:26:11.380Z,29.86
2019-04-16T12:27:11.530Z,30.47
2019-04-16T12:28:12.502Z,30.08
2019-04-16T12:29:11.323Z,30.27
2019-04-16T12:30:11.436Z,31.37
2019-04-16T12:31:11.325Z,31.57
2019-04-16T12:32:11.460Z,30.55
2019-04-16T12:33:13.970Z,30.76
2019-04-16T12:34:11.329Z,29.47
2019-04-16T12:35:11.327Z,29.99
2019-04-16T12:36:14.066Z,30.50
2019-04-16T12:37:11.262Z,31.39
2019-04-16T12:38:13.239Z,30.68
2019-04-16T12:39:12.746Z,29.90
2019-04-16T12:40:11.221Z,30.70
2019-04-16T12:41:11.214Z,30.70
2019-04-16T12:42:11.205Z,31.71
2019-04-16T12:43:14.657Z,32.31
2019-04-16T12:44:11.220Z,32.09
2019-04-16T12:45:11.173Z,32.09
2019-04-16T12:46:11.188Z,29.86
2019-04-16T12:47:11.213Z,29.77
2019-04-16T12:48:11.243Z,29.97
2019-04-16T12:49:11.133Z,30.18
2019-04-16T12:50:11.154Z,29.88
2019-04-16T12:51:11.146Z,30.18
2019-04-16T12:52:15.607Z,30.50